createdAt,value
2023-03-21T00:00:23.122Z,37.33
2023-03-21T00:03:13.030Z,38.38
2023-03-21T00:05:45.803Z,36.27
2023-03-21T00:08:15.866Z,37.30
2023-03-21T00:10:45.997Z,41.49
2023-03-21T00:13:16.550Z,39.61
2023-03-21T00:16:16.116Z,37.80
2023-03-21T00:18:47.253Z,36.54
2023-03-21T00:24:09.142Z,38.38
2023-03-21T00:26:38.673Z,38.20
2023-03-21T00:29:08.481Z,36.86
2023-03-21T00:31:39.253Z,36.77
2023-03-21T00:34:09.358Z,37.89
2023-03-21T00:36:39.298Z,36.97
2023-03-21T00:39:10.036Z,37.52
2023-03-21T00:41:43.255Z,38.53
2023-03-21T00:44:15.997Z,38.70
2023-03-21T00:47:00.752Z,38.61
2023-03-21T00:49:38.662Z,39.64
2023-03-21T00:52:18.582Z,37.31
2023-03-21T00:54:54.314Z,37.51
2023-03-21T00:57:37.534Z,36.41
2023-03-21T01:00:11.917Z,35.77
2023-03-21T01:03:11.522Z,35.58
2023-03-21T01:06:06.054Z,35.55
2023-03-21T01:08:52.101Z,37.78
2023-03-21T01:11:25.038Z,36.79
2023-03-21T01:14:04.091Z,36.30
2023-03-21T01:16:34.258Z,35.88
2023-03-21T01:19:09.304Z,35.82
2023-03-21T01:21:41.957Z,37.23
2023-03-21T01:24:12.051Z,36.54
2023-03-21T01:26:42.404Z,37.04
2023-03-21T01:29:12.012Z,36.97
2023-03-21T01:31:41.669Z,35.81
2023-03-21T01:34:12.728Z,35.76
2023-03-21T01:36:42.610Z,35.10
2023-03-21T01:39:17.430Z,35.11
2023-03-21T01:41:49.658Z,35.08
2023-03-21T01:44:25.301Z,35.52
2023-03-21T01:47:12.434Z,37.40
2023-03-21T01:49:51.344Z,36.48
2023-03-21T01:52:36.948Z,35.52
2023-03-21T01:55:13.595Z,36.21
2023-03-21T01:58:12.812Z,35.59
2023-03-21T02:01:12.061Z,35.73
2023-03-21T02:03:53.933Z,35.82
2023-03-21T02:06:41.403Z,37.34
2023-03-21T02:09:52.142Z,37.18
2023-03-21T02:12:24.216Z,36.28
2023-03-21T02:14:56.364Z,36.04
2023-03-21T02:17:57.612Z,36.23
2023-03-21T02:21:12.704Z,35.22
2023-03-21T02:24:37.960Z,34.60
2023-03-21T02:27:18.884Z,35.00
2023-03-21T02:30:30.427Z,35.69
2023-03-21T02:33:48.171Z,35.29
2023-03-21T02:36:27.078Z,35.82
2023-03-21T02:39:09.095Z,35.25
2023-03-21T02:41:48.477Z,35.84
2023-03-21T02:44:25.707Z,34.74
2023-03-21T02:47:06.071Z,34.45
2023-03-21T02:49:45.393Z,35.94
2023-03-21T02:52:35.435Z,36.01
2023-03-21T02:55:13.895Z,35.77
2023-03-21T02:57:52.578Z,35.82
2023-03-21T03:00:25.725Z,34.88
2023-03-21T03:03:08.153Z,34.87
2023-03-21T03:05:45.417Z,35.48
2023-03-21T03:08:37.556Z,35.68
2023-03-21T03:11:24.127Z,36.14
2023-03-21T03:14:40.147Z,35.81
2023-03-21T03:17:21.777Z,38.47
2023-03-21T03:20:15.500Z,37.09
2023-03-21T03:22:56.479Z,36.61
2023-03-21T03:25:42.005Z,36.22
2023-03-21T03:28:19.247Z,35.66
2023-03-21T03:36:06.372Z,34.97
2023-03-21T03:38:40.202Z,36.40
2023-03-21T03:41:14.790Z,35.15
2023-03-21T03:43:56.405Z,35.54
2023-03-21T03:46:34.277Z,35.39
2023-03-21T03:49:09.142Z,36.20
2023-03-21T03:51:45.411Z,35.50
2023-03-21T03:54:32.366Z,35.68
2023-03-21T03:57:04.548Z,35.46
2023-03-21T03:59:38.974Z,35.03
2023-03-21T04:02:47.156Z,36.45
2023-03-21T04:05:21.962Z,36.11
2023-03-21T04:07:51.909Z,35.57
2023-03-21T04:10:28.440Z,37.63
2023-03-21T04:12:57.642Z,37.17
2023-03-21T04:16:00.572Z,37.82
2023-03-21T04:18:30.244Z,37.22
2023-03-21T04:21:00.512Z,36.78
2023-03-21T04:23:32.567Z,36.88
2023-03-21T04:26:02.135Z,37.07
2023-03-21T04:28:37.948Z,38.33
2023-03-21T04:31:25.616Z,36.94
2023-03-21T04:34:05.933Z,36.54
2023-03-21T04:36:39.232Z,36.33
2023-03-21T04:39:12.627Z,35.34
2023-03-21T04:41:43.680Z,36.18
2023-03-21T04:44:14.058Z,35.34
2023-03-21T04:46:45.375Z,35.35
2023-03-21T04:49:15.590Z,36.10
2023-03-21T04:51:46.393Z,35.32
2023-03-21T04:54:21.104Z,35.00
2023-03-21T04:56:52.237Z,34.89
2023-03-21T04:59:22.189Z,34.81
2023-03-21T05:01:53.735Z,34.59
2023-03-21T05:04:23.078Z,34.73
2023-03-21T05:06:52.856Z,34.59
2023-03-21T05:09:22.912Z,34.26
2023-03-21T05:11:53.090Z,33.97
2023-03-21T05:14:25.064Z,33.94
2023-03-21T05:16:57.483Z,33.54
2023-03-21T05:19:35.050Z,34.24
2023-03-21T05:22:08.244Z,33.91
2023-03-21T05:24:39.334Z,35.18
2023-03-21T05:27:14.255Z,35.99
2023-03-21T05:29:47.901Z,36.54
2023-03-21T05:32:20.098Z,36.18
2023-03-21T05:34:49.532Z,35.62
2023-03-21T05:37:20.816Z,36.30
2023-03-21T05:39:52.384Z,35.60
2023-03-21T05:42:27.950Z,36.92
2023-03-21T05:44:57.588Z,37.30
2023-03-21T05:47:36.851Z,37.55
2023-03-21T05:50:07.409Z,38.43
2023-03-21T05:52:37.529Z,38.60
2023-03-21T05:55:13.754Z,37.33
2023-03-21T05:57:43.391Z,38.54
2023-03-21T06:00:22.038Z,36.27
2023-03-21T06:03:14.310Z,36.65
2023-03-21T06:06:03.531Z,34.83
2023-03-21T06:08:39.036Z,35.28
2023-03-21T06:11:14.215Z,34.60
2023-03-21T06:13:43.788Z,34.77
2023-03-21T06:16:13.132Z,34.99
2023-03-21T06:18:44.316Z,35.05
2023-03-21T06:21:24.701Z,35.92
2023-03-21T06:23:55.281Z,36.78
2023-03-21T06:26:25.443Z,34.68
2023-03-21T06:28:56.697Z,36.01
2023-03-21T06:31:26.895Z,36.01
2023-03-21T06:34:04.604Z,34.36
2023-03-21T06:36:35.078Z,35.12
2023-03-21T06:39:04.803Z,35.22
2023-03-21T06:41:34.465Z,34.79
2023-03-21T06:44:06.538Z,34.10
2023-03-21T06:46:42.436Z,33.79
2023-03-21T06:49:16.485Z,33.49
2023-03-21T06:51:46.012Z,35.36
2023-03-21T06:54:21.158Z,33.52
2023-03-21T06:56:56.780Z,33.79
2023-03-21T06:59:31.337Z,35.73
2023-03-21T07:02:07.027Z,33.26
2023-03-21T07:04:45.160Z,33.01
2023-03-21T07:07:19.983Z,33.54
2023-03-21T07:09:49.699Z,35.25
2023-03-21T07:12:19.205Z,34.29
2023-03-21T07:15:08.933Z,33.57
2023-03-21T07:17:39.517Z,35.12
2023-03-21T07:20:12.755Z,33.90
2023-03-21T07:22:42.098Z,33.11
2023-03-21T07:25:12.951Z,33.60
2023-03-21T07:27:42.766Z,34.90
2023-03-21T07:30:14.036Z,35.94
2023-03-21T07:32:43.611Z,33.25
2023-03-21T07:35:17.213Z,31.77
2023-03-21T07:37:46.727Z,32.38
2023-03-21T07:40:19.343Z,32.67
2023-03-21T07:42:51.769Z,32.71
2023-03-21T07:45:31.766Z,34.86
2023-03-21T07:48:01.368Z,33.90
2023-03-21T07:50:32.805Z,32.70
2023-03-21T07:53:02.117Z,32.57
2023-03-21T07:55:34.982Z,32.92
2023-03-21T07:58:05.641Z,31.99
2023-03-21T08:00:35.310Z,31.90
2023-03-21T08:03:04.731Z,31.59
2023-03-21T08:05:39.197Z,32.19
2023-03-21T08:08:09.308Z,32.81
2023-03-21T08:10:39.252Z,32.52
2023-03-21T08:13:08.572Z,31.67
2023-03-21T08:15:40.139Z,32.86
2023-03-21T08:18:10.241Z,32.54
2023-03-21T08:20:41.343Z,30.84
2023-03-21T08:23:11.217Z,31.83
2023-03-21T08:25:41.104Z,32.28
2023-03-21T08:28:10.707Z,31.09
2023-03-21T08:30:40.882Z,31.56
2023-03-21T08:33:14.435Z,32.33
2023-03-21T08:35:46.045Z,31.89
2023-03-21T08:38:15.623Z,30.18
2023-03-21T08:40:45.193Z,29.77
2023-03-21T08:43:15.013Z,30.59
2023-03-21T08:45:44.754Z,30.13
2023-03-21T08:48:14.132Z,30.13
2023-03-21T08:50:46.323Z,31.91
2023-03-21T08:53:15.795Z,30.81
2023-03-21T08:55:45.904Z,30.39
2023-03-21T08:58:15.165Z,30.27
2023-03-21T09:00:44.963Z,30.38
2023-03-21T09:03:14.349Z,32.38
2023-03-21T09:05:46.611Z,31.82
2023-03-21T09:08:15.904Z,32.84
2023-03-21T09:10:45.451Z,31.34
2023-03-21T09:13:14.756Z,30.33
2023-03-21T09:15:45.467Z,31.46
2023-03-21T09:18:16.413Z,31.08
2023-03-21T09:20:49.068Z,31.80
2023-03-21T09:23:18.466Z,30.72
2023-03-21T09:25:48.269Z,29.30
2023-03-21T09:28:17.794Z,29.90
2023-03-21T09:30:47.691Z,29.09
2023-03-21T09:33:21.339Z,28.50
2023-03-21T09:35:58.786Z,29.04
2023-03-21T09:38:30.578Z,29.51
2023-03-21T09:41:13.230Z,27.94
2023-03-21T09:43:56.130Z,28.05
2023-03-21T09:46:36.073Z,27.94
2023-03-21T09:49:10.006Z,29.20
2023-03-21T09:51:46.286Z,27.28
2023-03-21T09:54:23.585Z,25.46
2023-03-21T09:56:56.422Z,26.19
2023-03-21T09:59:33.805Z,25.88
2023-03-21T10:02:04.405Z,26.24
2023-03-21T10:04:34.034Z,28.54
2023-03-21T10:07:06.088Z,28.10
2023-03-21T10:09:38.756Z,26.46
2023-03-21T10:12:15.193Z,25.56
2023-03-21T10:14:48.700Z,24.93
2023-03-21T10:17:27.208Z,23.83
2023-03-21T10:20:11.972Z,25.23
2023-03-21T10:22:44.251Z,25.37
2023-03-21T10:25:17.035Z,25.89
2023-03-21T10:27:48.165Z,25.87
2023-03-21T10:30:29.458Z,22.43
2023-03-21T10:33:05.237Z,23.63
2023-03-21T10:35:37.519Z,25.34
2023-03-21T10:38:16.046Z,24.65
2023-03-21T10:40:45.767Z,22.65
2023-03-21T10:43:21.841Z,21.75
2023-03-21T10:45:51.272Z,22.65
2023-03-21T10:48:21.494Z,23.31
2023-03-21T10:50:53.797Z,23.78
2023-03-21T10:53:30.839Z,24.14
2023-03-21T10:56:02.700Z,23.84
2023-03-21T10:58:39.087Z,22.86
2023-03-21T11:01:15.032Z,19.49
2023-03-21T11:03:48.405Z,17.64
2023-03-21T11:06:27.813Z,18.00
2023-03-21T11:09:04.117Z,20.96
2023-03-21T11:11:38.968Z,19.95
2023-03-21T11:14:21.820Z,21.16
2023-03-21T11:16:51.955Z,18.69
2023-03-21T11:19:30.857Z,15.01
2023-03-21T11:22:00.411Z,14.77
2023-03-21T11:24:33.558Z,13.98
2023-03-21T11:27:07.163Z,14.00
2023-03-21T11:29:39.035Z,15.53
2023-03-21T11:32:14.187Z,15.89
2023-03-21T11:34:49.020Z,13.06
2023-03-21T11:37:30.017Z,13.47
2023-03-21T11:40:19.942Z,12.80
2023-03-21T11:42:52.888Z,13.00
2023-03-21T11:45:25.280Z,13.66
2023-03-21T11:47:56.964Z,14.75
2023-03-21T11:50:33.998Z,16.24
2023-03-21T11:53:29.121Z,20.27
2023-03-21T11:56:13.265Z,18.05
2023-03-21T11:58:53.266Z,15.75
2023-03-21T12:01:29.123Z,17.50
2023-03-21T12:04:12.938Z,17.80
2023-03-21T12:06:52.546Z,16.01
2023-03-21T12:09:39.325Z,14.66
2023-03-21T12:12:33.028Z,14.81
2023-03-21T12:15:14.614Z,11.58
2023-03-21T12:17:54.663Z,11.10
2023-03-21T12:20:31.781Z,13.74
2023-03-21T12:23:23.542Z,14.70
2023-03-21T12:26:09.637Z,11.69
2023-03-21T12:28:48.987Z,10.87
2023-03-21T12:31:25.279Z,9.85
2023-03-21T12:34:11.491Z,11.82
2023-03-21T12:36:52.868Z,13.87
2023-03-21T12:39:30.232Z,11.97
2023-03-21T12:42:20.710Z,10.33
2023-03-21T12:44:58.780Z,9.95
2023-03-21T12:47:31.691Z,10.20
2023-03-21T12:50:07.324Z,13.83
2023-03-21T12:52:40.461Z,12.29
2023-03-21T12:55:19.662Z,11.99
2023-03-21T12:57:57.493Z,11.33
2023-03-21T13:00:35.575Z,14.42
2023-03-21T13:03:10.045Z,15.75
2023-03-21T13:05:43.427Z,18.82
2023-03-21T13:08:17.733Z,18.74
2023-03-21T13:10:47.960Z,19.01
2023-03-21T13:13:27.278Z,19.27
2023-03-21T13:16:07.734Z,18.66
2023-03-21T13:18:45.354Z,18.06
2023-03-21T13:21:19.836Z,14.96
2023-03-21T13:24:02.269Z,14.11
2023-03-21T13:26:38.488Z,15.26
2023-03-21T13:29:33.386Z,16.42
2023-03-21T13:32:17.878Z,19.84
2023-03-21T13:34:55.087Z,19.35
2023-03-21T13:37:26.858Z,20.23
2023-03-21T13:40:09.484Z,18.80
2023-03-21T13:42:46.589Z,15.00
2023-03-21T13:45:28.407Z,12.77
2023-03-21T13:48:00.938Z,13.49
2023-03-21T13:50:52.709Z,14.19
2023-03-21T13:53:26.444Z,14.32
2023-03-21T13:56:24.490Z,15.36
2023-03-21T13:58:59.050Z,16.35
2023-03-21T14:01:35.438Z,15.58
2023-03-21T14:04:16.654Z,16.42
2023-03-21T14:06:51.530Z,14.37
2023-03-21T14:09:27.229Z,14.89
2023-03-21T14:12:04.057Z,13.60
2023-03-21T14:14:41.425Z,14.81
2023-03-21T14:17:23.249Z,17.23
2023-03-21T14:19:56.469Z,16.20
2023-03-21T14:22:26.187Z,15.67
2023-03-21T14:24:59.853Z,14.14
2023-03-21T14:27:31.414Z,13.50
2023-03-21T14:30:02.098Z,14.94
2023-03-21T14:32:32.269Z,14.51
2023-03-21T14:35:04.371Z,14.46
2023-03-21T14:37:38.797Z,14.73
2023-03-21T14:40:19.721Z,15.69
2023-03-21T14:42:50.601Z,16.34
2023-03-21T14:45:23.020Z,15.59
2023-03-21T14:48:00.129Z,15.92
2023-03-21T14:50:42.067Z,15.32
2023-03-21T14:53:19.867Z,17.22
2023-03-21T14:55:57.446Z,16.10
2023-03-21T14:58:27.980Z,17.07
2023-03-21T15:01:04.485Z,17.90
2023-03-21T15:03:34.870Z,18.15
2023-03-21T15:06:06.428Z,21.71
2023-03-21T15:08:35.677Z,23.38
2023-03-21T15:11:08.344Z,22.68
2023-03-21T15:13:45.510Z,24.80
2023-03-21T15:16:15.674Z,25.21
2023-03-21T15:18:46.848Z,27.21
2023-03-21T15:21:23.454Z,26.76
2023-03-21T15:23:55.900Z,26.62
2023-03-21T15:26:27.854Z,26.91
2023-03-21T15:29:00.466Z,26.83
2023-03-21T15:31:33.080Z,27.09
2023-03-21T15:34:02.818Z,27.84
2023-03-21T15:36:37.880Z,27.33
2023-03-21T15:39:09.771Z,27.70
2023-03-21T15:41:39.454Z,28.04
2023-03-21T15:44:15.996Z,27.87
2023-03-21T15:46:48.412Z,27.69
2023-03-21T15:49:22.918Z,28.15
2023-03-21T15:51:59.038Z,29.03
2023-03-21T15:54:31.231Z,30.78
2023-03-21T15:57:04.945Z,29.86
2023-03-21T15:59:38.792Z,29.67
2023-03-21T16:02:17.904Z,29.23
2023-03-21T16:04:58.362Z,29.59
2023-03-21T16:07:29.585Z,29.55
2023-03-21T16:10:04.674Z,29.01
2023-03-21T16:12:35.321Z,29.59
2023-03-21T16:15:05.247Z,29.69
2023-03-21T16:17:37.829Z,29.36
2023-03-21T16:20:20.347Z,29.95
2023-03-21T16:22:51.862Z,30.79
2023-03-21T16:25:21.803Z,30.29
2023-03-21T16:27:51.911Z,31.02
2023-03-21T16:30:22.940Z,30.74
2023-03-21T16:32:53.197Z,30.89
2023-03-21T16:35:23.728Z,31.08
2023-03-21T16:37:54.853Z,30.15
2023-03-21T16:40:29.469Z,29.72
2023-03-21T16:42:59.283Z,29.98
2023-03-21T16:45:30.506Z,29.59
2023-03-21T16:48:01.055Z,31.78
2023-03-21T16:50:34.273Z,30.64
2023-03-21T16:53:06.152Z,30.98
2023-03-21T16:55:35.834Z,31.44
2023-03-21T16:58:07.023Z,30.84
2023-03-21T17:00:36.597Z,31.15
2023-03-21T17:03:15.784Z,31.36
2023-03-21T17:05:45.511Z,31.35
2023-03-21T17:08:20.965Z,30.42
2023-03-21T17:10:50.627Z,31.55
2023-03-21T17:13:20.169Z,31.18
2023-03-21T17:15:49.630Z,30.96
2023-03-21T17:18:19.461Z,31.03
2023-03-21T17:20:48.811Z,30.81
2023-03-21T17:23:19.782Z,30.68
2023-03-21T17:25:49.051Z,31.29
2023-03-21T17:28:18.935Z,30.32
2023-03-21T17:30:48.400Z,31.80
2023-03-21T17:33:18.150Z,31.44
2023-03-21T17:35:47.571Z,30.60
2023-03-21T17:38:19.956Z,30.57
2023-03-21T17:40:50.532Z,29.96
2023-03-21T17:43:23.372Z,29.73
2023-03-21T17:45:53.270Z,29.62
2023-03-21T17:48:23.025Z,29.67
2023-03-21T17:50:52.591Z,30.85
2023-03-21T17:53:23.561Z,30.55
2023-03-21T17:55:52.952Z,29.78
2023-03-21T17:58:22.701Z,29.00
2023-03-21T18:00:52.109Z,29.67
2023-03-21T18:03:21.966Z,29.22
2023-03-21T18:05:51.823Z,30.03
2023-03-21T18:08:22.759Z,29.82
2023-03-21T18:10:52.836Z,30.41
2023-03-21T18:13:22.514Z,29.76
2023-03-21T18:15:52.898Z,30.36
2023-03-21T18:18:23.066Z,30.03
2023-03-21T18:20:54.292Z,30.22
2023-03-21T18:23:25.723Z,30.72
2023-03-21T18:25:55.540Z,30.46
2023-03-21T18:28:25.513Z,31.05
2023-03-21T18:31:16.839Z,30.66
2023-03-21T18:33:46.455Z,30.54
2023-03-21T18:36:24.663Z,30.88
2023-03-21T18:38:56.983Z,30.86
2023-03-21T18:41:26.329Z,30.58
2023-03-21T18:44:02.967Z,30.35
2023-03-21T18:46:47.064Z,29.95
2023-03-21T18:50:02.160Z,30.69
2023-03-21T18:52:09.040Z,30.33
2023-03-21T18:54:40.721Z,30.58
2023-03-21T19:00:00.043Z,30.24
2023-03-21T19:02:30.135Z,28.82
2023-03-21T19:05:00.020Z,29.87
2023-03-21T19:07:29.989Z,30.44
2023-03-21T19:10:17.011Z,30.48
2023-03-21T19:12:47.816Z,30.94
2023-03-21T19:15:19.904Z,30.76
2023-03-21T19:20:44.634Z,31.35
2023-03-21T19:23:14.679Z,31.77
2023-03-21T19:25:46.001Z,31.05
2023-03-21T19:28:15.446Z,30.83
2023-03-21T19:30:50.076Z,31.45
2023-03-21T19:33:21.064Z,31.05
2023-03-21T19:36:10.879Z,31.85
2023-03-21T19:38:41.507Z,32.59
2023-03-21T19:41:12.720Z,31.74
2023-03-21T19:43:52.863Z,32.51
2023-03-21T19:46:25.341Z,31.22
2023-03-21T19:48:56.448Z,30.50
2023-03-21T19:51:30.127Z,31.23
2023-03-21T19:54:00.193Z,31.34
2023-03-21T19:56:31.737Z,31.37
2023-03-21T19:59:01.737Z,31.68
2023-03-21T20:01:32.482Z,32.32
2023-03-21T20:04:02.223Z,32.14
2023-03-21T20:06:32.301Z,32.15
2023-03-21T20:11:53.528Z,31.58
2023-03-21T20:14:22.818Z,31.63
2023-03-21T20:16:55.400Z,31.78
2023-03-21T20:19:25.446Z,31.62
2023-03-21T20:21:59.910Z,31.50
2023-03-21T20:24:31.047Z,31.65
2023-03-21T20:27:02.093Z,31.82
2023-03-21T20:30:08.146Z,33.34
2023-03-21T20:32:21.313Z,33.13
2023-03-21T20:34:51.094Z,32.18
2023-03-21T20:37:24.249Z,32.05
2023-03-21T20:39:53.827Z,32.27
2023-03-21T20:42:24.897Z,31.79
2023-03-21T20:44:59.358Z,30.71
2023-03-21T20:47:30.417Z,31.35
2023-03-21T20:49:59.879Z,31.22
2023-03-21T20:55:20.054Z,31.72
2023-03-21T20:57:51.155Z,31.80
2023-03-21T21:00:22.398Z,32.02
2023-03-21T21:02:52.132Z,31.81
2023-03-21T21:05:27.847Z,31.42
2023-03-21T21:07:59.017Z,31.63
2023-03-21T21:10:28.873Z,31.97
2023-03-21T21:13:00.040Z,31.66
2023-03-21T21:15:29.449Z,32.00
2023-03-21T21:18:07.808Z,32.30
2023-03-21T21:20:38.631Z,32.26
2023-03-21T21:23:10.208Z,31.72
2023-03-21T21:25:39.821Z,31.23
2023-03-21T21:28:11.876Z,31.51
2023-03-21T21:30:42.992Z,31.61
2023-03-21T21:33:14.504Z,31.27
2023-03-21T21:35:47.710Z,32.83
2023-03-21T21:38:19.381Z,32.21
2023-03-21T21:40:49.832Z,32.14
2023-03-21T21:43:21.382Z,32.75
2023-03-21T21:45:51.780Z,32.02
2023-03-21T21:48:21.478Z,31.68
2023-03-21T21:50:54.162Z,31.31
2023-03-21T21:53:24.214Z,31.73
2023-03-21T21:55:54.175Z,31.80
2023-03-21T21:58:26.048Z,32.15
2023-03-21T22:00:59.304Z,31.19
2023-03-21T22:03:36.548Z,30.76
2023-03-21T22:06:06.264Z,30.80
2023-03-21T22:08:35.983Z,30.30
2023-03-21T22:11:06.731Z,30.81
2023-03-21T22:13:38.057Z,30.12
2023-03-21T22:16:08.124Z,31.07
2023-03-21T22:18:38.667Z,31.09
2023-03-21T22:21:08.738Z,31.22
2023-03-21T22:23:41.466Z,31.09
2023-03-21T22:26:11.811Z,30.39
2023-03-21T22:28:43.489Z,30.18
2023-03-21T22:31:15.678Z,30.36
2023-03-21T22:33:45.992Z,31.03
2023-03-21T22:36:15.543Z,30.92
2023-03-21T22:38:44.976Z,30.87
2023-03-21T22:41:14.388Z,30.08
2023-03-21T22:43:45.429Z,29.72
2023-03-21T22:46:14.899Z,30.42
2023-03-21T22:48:44.540Z,30.81
2023-03-21T22:51:13.848Z,30.66
2023-03-21T22:53:43.424Z,30.52
2023-03-21T22:56:12.848Z,30.47
2023-03-21T22:58:42.555Z,31.01
2023-03-21T23:01:13.253Z,31.83
2023-03-21T23:03:42.963Z,29.94
2023-03-21T23:06:12.476Z,29.98
2023-03-21T23:08:42.069Z,30.11
2023-03-21T23:11:12.322Z,29.69
2023-03-21T23:13:42.519Z,29.70
2023-03-21T23:16:13.235Z,30.10
2023-03-21T23:18:43.111Z,30.17
2023-03-21T23:21:13.472Z,30.13
2023-03-21T23:23:50.242Z,30.54
2023-03-21T23:26:21.077Z,30.93
2023-03-21T23:28:51.195Z,32.12
2023-03-21T23:31:24.111Z,33.00
2023-03-21T23:33:54.522Z,34.16
2023-03-21T23:36:24.130Z,34.57
2023-03-21T23:38:54.086Z,34.70
2023-03-21T23:41:25.743Z,34.47
2023-03-21T23:43:55.327Z,34.83
2023-03-21T23:46:26.182Z,34.61
2023-03-21T23:48:55.695Z,34.73
2023-03-21T23:51:25.062Z,34.66
2023-03-21T23:53:56.631Z,34.48
2023-03-21T23:56:27.617Z,35.26
2023-03-21T23:58:59.551Z,35.34
